Terminal Aerodrome Forecast
Issued by NWS

Home | Current Version | Previous Version | Text Only | Print | Product List | Glossary On
Versions: 1 2 3 4 5 6 7 8 9 10 11 12 13 14 15 16 17 18
094
FTUS43 KGRR 250300 AAB
TAFLAN
TAF AMD
KLAN 250300Z 2503/2524 01010KT 2SM -RA BR OVC004
     FM250500 01007KT 3SM BR VCSH OVC007
     FM251600 01010KT P6SM VCSH OVC015
     FM252200 35010G16KT P6SM VCTS BKN025CB=

USA.gov is the U.S. government's official web portal to all federal, state and local government web resources and services.